Airfield :
LOGIN :

Register | Disclaimer

   EN    FR    IT 

 










Legend :    VFR   Marginal VFR   IFR   Intensive IFR   Very Intensive IFR
Visi :
Ceiling :
>= 8 km
>= 3000ft
5 to 8 km
1000 to 3000 ft
1500m to 5 km
500 to 1000 ft
800 to 1500m
200 to 500 ft
< 800m
< 200 ft
Symbols :   Thunderstorms  Fog  Heavy snow  Heavy precipitations  Wind > 20 kt
SIGMETs :     Misc.  Thunderstorms  Icing  Turbulence  Mountain Waves  Volcanic Ashes






- Airport Elevation : 162 ft
- IATA code : BOD


LFBD - Bordeaux / Merignac

CURRENT METAR :
  • 270230Z AUTO 19006KT 9999 SCT030 BKN060 BKN080 10/09 Q1014 TEMPO 4000 SHRA BKN030TCU

EXPIRED METARs :
  • 270200Z AUTO 20007KT 9999 FEW034 SCT052 BKN064 10/09 Q1014 TEMPO 4000 SHRA BKN030TCU
  • 270130Z AUTO 20008KT 9999 -RA FEW035/// BKN048/// BKN058/// ///TCU 10/09 Q1014 TEMPO 4000 SHRA
  • 270100Z AUTO 19004KT 9999 FEW016/// BKN066/// BKN084/// ///TCU 09/09 Q1014 TEMPO 4000 SHRA
  • 270030Z AUTO 23003KT 9999 FEW009 SCT056 10/09 Q1014 TEMPO 4000 SHRA BKN030TCU
  • 270000Z AUTO VRB03KT 9999 FEW023 BKN030 BKN040 10/09 Q1014 TEMPO 4000 SHRA BKN030TCU

TAF TAF LFBD
Valid from the 27 at 00:00 until the 28 at 06:00 UTC


262300Z 2700/2806 24008KT 9999 BKN050 TX15/2713Z TN09/2706Z
TEMPO 2700/2706 4000 SHRA BKN030TCU
TEMPO 2706/2720 -RA BKN025
TEMPO 2720/2806 -RA BKN010
ATIS : +33 5 57 92 81 04



MET'MAP, your aeronautical weather chart ! - Copyright ORBIFLY December 2007 - Disclaimer

ORBIFLY MET'MAP TEAM :

Programming & Development : Alexandra Zaïnal
Concept & original design : Baudouin d'Aumeries
Assistance for programming : Marc-Olivier Méhu
Technical & hardware support : Manuel Goepfert

Contact : metmap@orbifly.com




SOURCES & CREDITS :

   NOAA